Time;durP1;ratioP1;P1;durP2;ratioP2;P2;SDS_P1;SDS_P2;PMS_P1;PMS_P2;Temp;Humidity;BMP_temperature;BMP_pressure;BME280_temperature;BME280_humidity;BME280_pressure;Samples;Min_cycle;Max_cycle;Signal;HPM_P1;HPM_P2
2022/01/04 00:00:07;;;;;;;119.10;105.97;;;9.00;99.90;;;;;;4978289;28;20062;-76
2022/01/04 00:02:39;;;;;;;;;;;9.00;99.90;;;;;;5011493;28;20051;-77
2022/01/04 00:05:07;;;;;;;119.28;106.47;;;9.00;99.90;;;;;;4978478;28;20033;-77
2022/01/04 00:07:36;;;;;;;121.82;105.20;;;9.00;99.90;;;;;;5030011;28;20072;-77
2022/01/04 00:10:03;;;;;;;119.00;106.18;;;9.00;99.90;;;;;;4997746;28;20050;-77
2022/01/04 00:15:15;;;;;;;118.10;105.53;;;9.10;99.90;;;;;;5015224;28;20193;-77
2022/01/04 00:17:42;;;;;;;118.43;106.10;;;9.00;99.90;;;;;;5014842;28;20058;-77
2022/01/04 00:20:11;;;;;;;118.95;106.28;;;9.00;99.90;;;;;;4996866;28;20122;-77
2022/01/04 00:22:39;;;;;;;118.22;105.60;;;9.00;99.90;;;;;;4997765;28;20058;-77
2022/01/04 00:25:07;;;;;;;119.63;106.95;;;9.00;99.90;;;;;;5015204;28;20141;-76
2022/01/04 00:27:34;;;;;;;119.68;107.38;;;9.10;99.90;;;;;;4980992;28;20053;-77
2022/01/04 00:30:02;;;;;;;122.22;109.10;;;9.00;99.90;;;;;;4997414;28;20136;-77
2022/01/04 00:32:29;;;;;;;119.55;106.80;;;9.00;99.90;;;;;;4997492;28;20189;-77
2022/01/04 00:34:55;;;;;;;119.53;106.10;;;9.10;99.90;;;;;;4997024;28;20081;-77
2022/01/04 00:37:22;;;;;;;117.88;105.35;;;9.10;99.90;;;;;;4980971;28;20058;-77
2022/01/04 00:39:51;;;;;;;120.90;104.93;;;9.10;99.90;;;;;;4981056;28;20065;-77
2022/01/04 00:42:18;;;;;;;115.88;103.57;;;9.10;99.90;;;;;;5030101;28;20054;-77
2022/01/04 00:44:45;;;;;;;117.38;105.05;;;9.10;99.90;;;;;;4997169;28;20104;-77
2022/01/04 00:47:12;;;;;;;118.20;105.28;;;9.10;99.90;;;;;;5014954;28;20061;-77
2022/01/04 00:49:38;;;;;;;116.53;104.05;;;9.10;99.90;;;;;;4997408;28;20574;-78
2022/01/04 00:52:06;;;;;;;116.63;104.22;;;9.10;99.90;;;;;;4980966;28;20047;-77
2022/01/04 00:54:34;;;;;;;118.05;105.78;;;9.10;99.90;;;;;;4996888;28;20050;-77
2022/01/04 00:57:02;;;;;;;118.78;106.28;;;9.10;99.90;;;;;;4997075;28;20085;-77
2022/01/04 00:59:29;;;;;;;115.63;103.63;;;9.10;99.90;;;;;;5030117;28;20431;-77
2022/01/04 01:01:56;;;;;;;118.72;106.38;;;9.20;99.90;;;;;;4996739;28;20058;-77
2022/01/04 01:04:23;;;;;;;118.40;106.10;;;9.20;99.90;;;;;;4997154;28;20046;-76
2022/01/04 01:06:50;;;;;;;118.13;104.78;;;9.20;99.90;;;;;;4996897;28;20066;-77
2022/01/04 01:09:18;;;;;;;119.50;106.43;;;9.10;99.90;;;;;;4996974;28;20054;-77
2022/01/04 01:11:46;;;;;;;118.95;106.55;;;9.10;99.90;;;;;;4980214;28;20050;-77
2022/01/04 01:14:14;;;;;;;120.85;107.97;;;9.10;99.90;;;;;;5014633;28;20050;-77
2022/01/04 01:16:41;;;;;;;120.03;107.07;;;9.10;99.90;;;;;;4996497;28;20532;-77
2022/01/04 01:19:08;;;;;;;121.15;108.50;;;9.10;99.90;;;;;;5012888;28;20057;-77
2022/01/04 01:21:35;;;;;;;118.50;106.43;;;9.10;99.90;;;;;;4996483;28;20050;-78
2022/01/04 01:24:04;;;;;;;118.85;106.57;;;9.10;99.90;;;;;;4979969;28;20507;-77
2022/01/04 01:26:31;;;;;;;119.47;106.82;;;9.10;99.90;;;;;;5014108;28;20440;-77
2022/01/04 01:28:58;;;;;;;122.22;109.03;;;9.20;99.90;;;;;;4996404;28;20109;-77
2022/01/04 01:31:27;;;;;;;116.80;104.97;;;9.20;99.90;;;;;;4996140;28;20042;-77
2022/01/04 01:33:54;;;;;;;120.45;107.53;;;9.10;99.90;;;;;;4980449;28;20061;-77
2022/01/04 01:36:21;;;;;;;118.03;105.60;;;9.10;99.90;;;;;;5014140;28;20069;-77
2022/01/04 01:38:48;;;;;;;120.15;107.25;;;9.10;99.90;;;;;;4996417;28;20050;-76
2022/01/04 01:41:15;;;;;;;117.50;105.72;;;9.10;99.90;;;;;;4979914;28;20050;-77
2022/01/04 01:43:42;;;;;;;119.97;107.20;;;9.10;99.90;;;;;;4980195;28;20435;-77
2022/01/04 01:46:09;;;;;;;118.93;105.97;;;9.10;99.90;;;;;;4996100;28;20104;-77
2022/01/04 01:48:38;;;;;;;117.88;105.82;;;9.10;99.90;;;;;;4995959;28;20050;-77
2022/01/04 01:51:05;;;;;;;120.85;107.90;;;9.10;99.90;;;;;;5029219;28;20490;-77
2022/01/04 01:53:33;;;;;;;122.03;109.15;;;9.10;99.90;;;;;;4996113;28;20050;-77
2022/01/04 01:56:00;;;;;;;119.32;106.90;;;9.10;99.90;;;;;;5029095;28;20050;-77
2022/01/04 01:58:27;;;;;;;122.40;109.25;;;9.10;99.90;;;;;;4995574;28;20137;-77
2022/01/04 02:00:54;;;;;;;120.13;107.85;;;9.10;99.90;;;;;;4995875;28;20059;-77
2022/01/04 02:03:22;;;;;;;120.13;107.43;;;9.10;99.90;;;;;;4995923;28;20134;-77
2022/01/04 02:05:51;;;;;;;120.75;107.85;;;9.10;99.90;;;;;;4995720;28;20073;-77
2022/01/04 02:08:20;;;;;;;119.55;106.97;;;9.00;99.90;;;;;;4995868;28;20571;-77
2022/01/04 02:10:47;;;;;;;122.40;109.80;;;9.00;99.90;;;;;;4995504;28;20046;-77
2022/01/04 02:13:14;;;;;;;121.97;108.15;;;9.00;99.90;;;;;;4978795;28;20127;-77
2022/01/04 02:15:41;;;;;;;122.68;109.60;;;9.00;99.90;;;;;;4995867;28;20093;-77
2022/01/04 02:18:08;;;;;;;120.45;107.82;;;9.00;99.90;;;;;;5012302;28;20050;-77
2022/01/04 02:20:37;;;;;;;121.05;108.13;;;8.90;99.90;;;;;;5013570;28;20610;-77
2022/01/04 02:23:03;;;;;;;121.68;108.68;;;9.00;99.90;;;;;;4996122;28;20493;-77
2022/01/04 02:25:31;;;;;;;121.70;108.90;;;8.90;99.90;;;;;;5013650;28;20059;-77
2022/01/04 02:27:59;;;;;;;125.63;109.47;;;8.90;99.90;;;;;;4995953;28;20121;-77
2022/01/04 02:30:26;;;;;;;121.03;108.18;;;8.90;99.90;;;;;;5013371;28;20050;-77
2022/01/04 02:32:54;;;;;;;124.13;110.80;;;8.90;99.90;;;;;;4995879;28;20531;-77
2022/01/04 02:35:24;;;;;;;122.45;109.63;;;8.90;99.90;;;;;;4995488;28;20508;-77
2022/01/04 02:37:55;;;;;;;121.05;108.15;;;8.90;99.90;;;;;;4995599;28;20141;-76
2022/01/04 02:40:23;;;;;;;123.50;110.55;;;8.90;99.90;;;;;;4979404;28;20145;-77
2022/01/04 02:42:50;;;;;;;123.60;110.35;;;8.90;99.90;;;;;;4997933;28;20116;-77
2022/01/04 02:45:18;;;;;;;122.80;109.63;;;8.90;99.90;;;;;;4998821;28;20093;-77
2022/01/04 02:47:45;;;;;;;124.60;111.40;;;9.00;99.90;;;;;;4998782;28;20047;-77
2022/01/04 02:50:12;;;;;;;124.15;110.88;;;8.90;99.90;;;;;;5016714;28;20062;-76
2022/01/04 02:52:40;;;;;;;121.90;109.47;;;8.90;99.90;;;;;;4999051;28;20062;-77
2022/01/04 02:55:13;;;;;;;122.70;110.05;;;8.90;99.90;;;;;;4998615;28;20998;-77
2022/01/04 02:57:42;;;;;;;122.70;109.50;;;9.00;99.90;;;;;;4998104;28;20050;-77
2022/01/04 03:00:11;;;;;;;122.82;109.72;;;8.90;99.90;;;;;;5015341;28;20129;-77
2022/01/04 03:02:38;;;;;;;122.82;110.20;;;8.90;99.90;;;;;;4998913;28;20073;-77
2022/01/04 03:05:06;;;;;;;121.82;109.50;;;8.90;99.90;;;;;;5015408;28;20097;-77
2022/01/04 03:07:34;;;;;;;123.10;110.75;;;8.90;99.90;;;;;;5031886;28;20523;-77
2022/01/04 03:10:52;;;;;;;120.72;108.40;;;8.90;99.90;;;;;;5000426;28;20126;-77
2022/01/04 03:13:20;;;;;;;124.20;110.95;;;8.90;99.90;;;;;;4998588;28;20065;-77
2022/01/04 03:15:48;;;;;;;126.10;112.28;;;8.90;99.90;;;;;;5016182;28;20534;-77
2022/01/04 03:18:15;;;;;;;122.50;110.07;;;8.90;99.90;;;;;;4998696;28;20054;-77
2022/01/04 03:20:42;;;;;;;122.00;109.18;;;8.90;99.90;;;;;;4998488;28;20050;-77
2022/01/04 03:23:59;;;;;;;122.57;109.30;;;8.90;99.90;;;;;;4998776;28;20050;-77
2022/01/04 03:26:27;;;;;;;125.22;111.57;;;8.90;99.90;;;;;;4998332;28;20050;-77
2022/01/04 03:28:55;;;;;;;125.57;112.68;;;8.90;99.90;;;;;;4997576;28;20058;-77
2022/01/04 03:31:22;;;;;;;123.13;109.70;;;8.90;99.90;;;;;;4998357;28;20046;-77
2022/01/04 03:33:49;;;;;;;126.32;112.65;;;8.90;99.90;;;;;;4997379;28;20073;-77
2022/01/04 03:36:16;;;;;;;123.63;111.18;;;8.90;99.90;;;;;;4972375;28;20421;-77
2022/01/04 03:38:43;;;;;;;125.80;112.50;;;9.00;99.90;;;;;;5011085;28;20051;-77
2022/01/04 03:41:10;;;;;;;126.70;113.90;;;9.00;99.90;;;;;;5011239;28;20049;-77
2022/01/04 03:43:38;;;;;;;125.50;112.20;;;9.00;99.90;;;;;;4978491;28;20071;-77
2022/01/04 03:46:07;;;;;;;125.80;112.95;;;9.00;99.90;;;;;;4978511;28;20058;-77
2022/01/04 03:48:35;;;;;;;124.15;111.25;;;9.00;99.90;;;;;;4978393;28;20101;-77
2022/01/04 03:51:03;;;;;;;125.22;111.88;;;9.00;99.90;;;;;;4996036;28;20483;-77
2022/01/04 03:53:29;;;;;;;124.47;110.85;;;9.00;99.90;;;;;;4962169;28;20061;-77
2022/01/04 03:55:57;;;;;;;124.15;111.22;;;9.00;99.90;;;;;;4978527;28;20081;-77
2022/01/04 03:58:24;;;;;;;123.43;111.07;;;9.00;99.90;;;;;;4995696;28;20058;-77
2022/01/04 04:00:51;;;;;;;122.85;109.82;;;9.10;99.90;;;;;;4996165;28;20055;-77
2022/01/04 04:03:20;;;;;;;124.78;111.53;;;9.00;99.90;;;;;;4962426;28;20065;-77
2022/01/04 04:05:47;;;;;;;125.00;111.50;;;9.00;99.90;;;;;;4978272;28;20147;-77
2022/01/04 04:08:14;;;;;;;125.15;111.40;;;9.10;99.90;;;;;;4977987;28;20429;-77
2022/01/04 04:10:41;;;;;;;124.78;111.35;;;9.10;99.90;;;;;;4962178;28;20039;-77
2022/01/04 04:13:09;;;;;;;125.80;112.28;;;9.10;99.90;;;;;;4978122;28;20807;-77
2022/01/04 04:15:38;;;;;;;124.30;111.57;;;9.10;99.90;;;;;;4978114;28;20057;-77
2022/01/04 04:18:05;;;;;;;124.05;110.88;;;9.10;99.90;;;;;;5010381;28;20055;-77
2022/01/04 04:20:33;;;;;;;126.60;113.03;;;9.10;99.90;;;;;;4995824;28;20058;-77
2022/01/04 04:23:00;;;;;;;124.35;111.22;;;9.10;99.90;;;;;;5010603;28;20130;-77
2022/01/04 04:25:27;;;;;;;124.20;111.38;;;9.10;99.90;;;;;;4961555;28;20062;-77
2022/01/04 04:27:54;;;;;;;125.03;111.47;;;9.10;99.90;;;;;;4977832;28;20050;-77
2022/01/04 04:30:21;;;;;;;123.60;110.72;;;9.10;99.90;;;;;;4995619;28;20047;-77
2022/01/04 04:32:48;;;;;;;125.53;112.28;;;9.10;99.90;;;;;;4962024;28;20058;-77
2022/01/04 04:35:16;;;;;;;125.70;112.80;;;9.10;99.90;;;;;;4977757;28;20050;-77
2022/01/04 04:37:44;;;;;;;124.50;111.57;;;9.10;99.90;;;;;;4977608;28;20065;-77
2022/01/04 04:40:12;;;;;;;126.60;113.45;;;9.10;99.90;;;;;;4977599;28;20057;-77
2022/01/04 04:42:39;;;;;;;127.50;114.10;;;9.20;99.90;;;;;;4995399;28;20069;-77
2022/01/04 04:45:08;;;;;;;126.65;113.13;;;9.20;99.90;;;;;;4977614;28;20047;-77
2022/01/04 04:47:35;;;;;;;124.35;111.45;;;9.20;99.90;;;;;;5010354;28;20055;-77
2022/01/04 04:50:02;;;;;;;125.80;112.78;;;9.10;99.90;;;;;;4961424;28;20130;-77
2022/01/04 04:52:29;;;;;;;122.80;110.47;;;9.10;99.90;;;;;;4977627;28;20062;-77
2022/01/04 04:54:58;;;;;;;125.15;112.13;;;9.10;99.90;;;;;;4977717;28;20078;-77
2022/01/04 04:57:25;;;;;;;125.60;112.38;;;9.10;99.90;;;;;;5009364;28;20065;-77
2022/01/04 04:59:52;;;;;;;129.25;115.57;;;9.10;99.90;;;;;;4994890;28;20570;-77
2022/01/04 05:02:19;;;;;;;128.18;114.90;;;9.10;99.90;;;;;;4961248;28;20074;-77
2022/01/04 05:04:46;;;;;;;126.57;114.07;;;9.10;99.90;;;;;;4994448;28;20061;-77
2022/01/04 05:07:13;;;;;;;122.20;110.13;;;9.10;99.90;;;;;;4994703;28;20174;-77
2022/01/04 05:09:40;;;;;;;123.28;110.85;;;9.10;99.90;;;;;;4961216;28;20050;-77
2022/01/04 05:12:10;;;;;;;122.82;109.93;;;9.10;99.90;;;;;;4977101;28;20062;-76
2022/01/04 05:14:39;;;;;;;122.65;110.05;;;9.10;99.90;;;;;;4976784;28;20065;-77
2022/01/04 05:17:06;;;;;;;121.70;109.00;;;9.10;99.90;;;;;;4976896;28;20051;-77
2022/01/04 05:19:33;;;;;;;123.28;111.05;;;9.10;99.90;;;;;;4959685;28;20051;-77
2022/01/04 05:22:00;;;;;;;124.13;111.53;;;9.10;99.90;;;;;;4977271;28;20065;-76
2022/01/04 05:24:27;;;;;;;123.63;111.13;;;9.10;99.90;;;;;;4961095;28;20054;-77
2022/01/04 05:26:54;;;;;;;126.25;113.22;;;9.10;99.90;;;;;;4976999;28;20062;-77
2022/01/04 05:29:23;;;;;;;126.47;113.60;;;9.10;99.90;;;;;;4960794;28;20126;-77
2022/01/04 05:31:50;;;;;;;127.25;114.10;;;9.10;99.90;;;;;;4976969;28;20055;-77
2022/01/04 05:34:17;;;;;;;124.10;111.40;;;9.10;99.90;;;;;;4976990;28;20102;-77
2022/01/04 05:36:43;;;;;;;126.38;113.68;;;9.10;99.90;;;;;;4976913;28;20847;-77
2022/01/04 05:39:11;;;;;;;126.40;113.78;;;9.10;99.90;;;;;;4960748;28;20059;-77
2022/01/04 05:41:38;;;;;;;127.60;114.78;;;9.00;99.90;;;;;;4960750;28;20512;-76
2022/01/04 05:44:56;;;;;;;126.93;113.43;;;9.10;99.90;;;;;;4961584;28;20050;-77
2022/01/04 05:47:24;;;;;;;124.57;111.82;;;9.10;99.90;;;;;;4976789;28;20046;-77
2022/01/04 05:49:51;;;;;;;127.20;114.10;;;9.00;99.90;;;;;;4994123;28;20102;-77
2022/01/04 05:52:18;;;;;;;125.22;112.00;;;9.00;99.90;;;;;;4976659;28;20799;-77
2022/01/04 05:54:48;;;;;;;126.97;113.60;;;9.00;99.90;;;;;;4976682;28;20059;-77
2022/01/04 05:57:16;;;;;;;127.22;114.15;;;9.00;99.90;;;;;;4976722;28;20134;-78
2022/01/04 05:59:48;;;;;;;124.97;112.18;;;9.00;99.90;;;;;;4978352;28;20046;-78
2022/01/04 06:02:15;;;;;;;128.63;114.88;;;9.00;99.90;;;;;;4960502;28;20059;-77
2022/01/04 06:04:43;;;;;;;128.23;115.00;;;9.00;99.90;;;;;;4976587;28;20129;-77
2022/01/04 06:07:11;;;;;;;128.88;115.13;;;9.00;99.90;;;;;;4976380;28;20050;-77
2022/01/04 06:09:44;;;;;;;127.72;114.97;;;9.00;99.90;;;;;;4976539;28;20051;-77
2022/01/04 06:14:59;;;;;;;128.25;115.20;;;9.00;99.90;;;;;;4976465;28;20054;-77
2022/01/04 06:17:29;;;;;;;130.40;117.18;;;9.00;99.90;;;;;;4995716;28;20047;-78
2022/01/04 06:19:58;;;;;;;127.80;114.70;;;9.00;99.90;;;;;;4979763;28;20126;-77
2022/01/04 06:22:26;;;;;;;126.47;113.45;;;9.00;99.90;;;;;;4997366;28;20162;-77
2022/01/04 06:24:55;;;;;;;129.85;116.55;;;9.00;99.90;;;;;;4997528;28;20054;-77
2022/01/04 06:27:22;;;;;;;128.77;115.45;;;9.00;99.90;;;;;;4963654;28;20076;-77
2022/01/04 06:29:49;;;;;;;127.68;114.70;;;9.00;99.90;;;;;;4979778;28;20059;-77
2022/01/04 06:32:17;;;;;;;129.55;116.30;;;8.90;99.90;;;;;;4963313;28;20047;-77
2022/01/04 06:34:44;;;;;;;129.75;117.05;;;8.90;99.90;;;;;;4979597;28;20050;-77
2022/01/04 06:37:14;;;;;;;129.55;115.88;;;8.90;99.90;;;;;;4997085;28;20055;-77
2022/01/04 06:39:42;;;;;;;129.55;115.97;;;8.90;99.90;;;;;;5012593;28;20065;-77
2022/01/04 06:42:09;;;;;;;127.65;114.68;;;8.90;99.90;;;;;;4979835;28;20141;-77
2022/01/04 06:44:37;;;;;;;131.05;118.03;;;8.90;99.90;;;;;;4979301;28;20062;-77
2022/01/04 06:47:04;;;;;;;129.45;116.43;;;8.90;99.90;;;;;;4963277;28;20058;-77
2022/01/04 06:49:31;;;;;;;129.55;116.70;;;9.00;99.90;;;;;;5012128;28;20042;-77
2022/01/04 06:51:58;;;;;;;133.18;119.25;;;8.90;99.90;;;;;;4979480;28;20051;-77
2022/01/04 06:54:26;;;;;;;130.75;117.47;;;8.90;99.90;;;;;;4979694;28;20292;-77
2022/01/04 06:56:53;;;;;;;130.90;117.88;;;8.90;99.90;;;;;;4996282;28;20527;-77
2022/01/04 06:59:20;;;;;;;133.20;120.05;;;8.90;99.90;;;;;;4979289;28;20053;-77
2022/01/04 07:01:47;;;;;;;132.77;119.63;;;8.90;99.90;;;;;;4963107;28;20057;-77
2022/01/04 07:04:14;;;;;;;132.38;118.78;;;8.90;99.90;;;;;;5011949;28;20062;-77
2022/01/04 07:06:42;;;;;;;131.35;117.95;;;8.90;99.90;;;;;;4979147;28;20051;-77
2022/01/04 07:09:47;;;;;;;134.52;120.57;;;8.90;99.90;;;;;;4997323;28;20124;-78
2022/01/04 07:12:14;;;;;;;133.05;119.60;;;8.90;99.90;;;;;;4995634;28;20113;-76
2022/01/04 07:14:41;;;;;;;130.60;117.10;;;8.90;99.90;;;;;;4978899;28;20066;-77
2022/01/04 07:17:08;;;;;;;133.45;119.45;;;8.90;99.90;;;;;;4962715;28;20054;-77
2022/01/04 07:19:35;;;;;;;132.75;119.45;;;8.90;99.90;;;;;;4978885;28;20050;-77
2022/01/04 07:22:03;;;;;;;133.90;120.47;;;8.90;99.90;;;;;;4978949;28;20078;-77
2022/01/04 07:24:31;;;;;;;130.82;117.82;;;9.00;99.90;;;;;;5011675;28;20133;-77
2022/01/04 07:26:59;;;;;;;134.75;120.90;;;9.00;99.90;;;;;;4978391;28;20078;-78
2022/01/04 07:29:26;;;;;;;133.85;119.80;;;8.90;99.90;;;;;;4978416;28;20051;-77
2022/01/04 07:31:53;;;;;;;135.15;121.60;;;8.90;99.90;;;;;;4978514;28;20054;-77
2022/01/04 07:34:20;;;;;;;136.07;122.47;;;8.90;99.90;;;;;;4996129;28;20061;-78
2022/01/04 07:36:47;;;;;;;133.38;119.95;;;8.90;99.90;;;;;;4978711;28;20062;-78
2022/01/04 07:39:16;;;;;;;138.13;124.15;;;8.90;99.90;;;;;;4978157;28;20047;-78
2022/01/04 07:41:43;;;;;;;137.30;123.65;;;8.90;99.90;;;;;;4978762;28;20138;-78
2022/01/04 07:44:12;;;;;;;137.93;123.70;;;8.80;99.90;;;;;;5011067;28;20065;-77
2022/01/04 07:46:39;;;;;;;136.80;122.97;;;8.90;99.90;;;;;;4978819;28;20514;-77
2022/01/04 07:49:06;;;;;;;135.25;121.65;;;8.80;99.90;;;;;;4978101;28;20118;-77
2022/01/04 07:51:33;;;;;;;134.88;121.18;;;8.80;99.90;;;;;;4962097;28;20078;-77
2022/01/04 07:54:00;;;;;;;141.30;126.72;;;8.80;99.90;;;;;;4978352;28;20791;-78
2022/01/04 07:56:26;;;;;;;137.98;124.10;;;8.80;99.90;;;;;;4995854;28;20059;-78
2022/01/04 07:59:00;;;;;;;137.07;123.28;;;8.80;99.90;;;;;;4977901;28;20414;-78
2022/01/04 08:01:28;;;;;;;136.00;122.82;;;8.80;99.90;;;;;;4977994;28;20071;-78
2022/01/04 08:03:56;;;;;;;134.63;120.70;;;8.80;99.90;;;;;;4978112;28;20055;-78
2022/01/04 08:06:24;;;;;;;133.25;119.85;;;8.80;99.90;;;;;;4978265;28;20081;-78
2022/01/04 08:08:51;;;;;;;135.07;121.60;;;8.80;99.90;;;;;;4977868;28;20206;-78
2022/01/04 08:11:18;;;;;;;134.57;121.50;;;8.80;99.90;;;;;;4977885;28;20051;-78
2022/01/04 08:13:45;;;;;;;132.93;120.07;;;8.80;99.90;;;;;;4978024;28;20069;-77
2022/01/04 08:16:15;;;;;;;135.93;122.60;;;8.80;99.90;;;;;;4978321;28;20865;-77
2022/01/04 08:18:44;;;;;;;137.20;123.65;;;8.80;99.90;;;;;;4977485;28;20058;-79
2022/01/04 08:21:11;;;;;;;136.88;123.82;;;8.80;99.90;;;;;;4977585;28;20125;-77
2022/01/04 08:23:38;;;;;;;137.00;123.28;;;8.80;99.90;;;;;;4961414;28;20043;-78
2022/01/04 08:26:06;;;;;;;138.38;124.68;;;8.80;99.90;;;;;;4977653;28;20141;-77
2022/01/04 08:28:33;;;;;;;137.40;123.97;;;8.80;99.90;;;;;;4976636;28;20054;-78
2022/01/04 08:31:00;;;;;;;133.48;120.40;;;8.80;99.90;;;;;;5001863;28;20050;-83
2022/01/04 08:33:27;;;;;;;133.38;120.35;;;8.80;99.90;;;;;;4986744;28;20141;-84
2022/01/04 08:35:56;;;;;;;134.05;120.63;;;8.80;99.90;;;;;;4985898;28;20057;-83
2022/01/04 08:38:23;;;;;;;133.45;120.20;;;8.80;99.90;;;;;;4987834;28;20129;-83
2022/01/04 08:40:50;;;;;;;137.35;123.70;;;8.80;99.90;;;;;;4991592;28;20109;-82
2022/01/04 08:43:19;;;;;;;136.18;122.45;;;8.80;99.90;;;;;;4994818;28;20055;-83
2022/01/04 08:45:47;;;;;;;135.07;121.85;;;8.80;99.90;;;;;;4986098;28;20051;-83
2022/01/04 08:48:15;;;;;;;135.13;122.15;;;8.80;99.90;;;;;;4903735;28;20082;-81
2022/01/04 08:50:44;;;;;;;135.75;122.35;;;8.80;99.90;;;;;;4966229;28;20057;-80
2022/01/04 08:53:13;;;;;;;136.00;122.25;;;8.80;99.90;;;;;;4966264;28;20055;-81
2022/01/04 08:55:40;;;;;;;133.05;119.85;;;8.80;99.90;;;;;;4966746;28;20047;-80
2022/01/04 08:58:08;;;;;;;134.00;120.85;;;8.80;99.90;;;;;;4967496;28;20062;-80
2022/01/04 09:00:36;;;;;;;134.80;121.50;;;8.80;99.90;;;;;;4975426;28;20165;-82
2022/01/04 09:03:04;;;;;;;126.97;114.50;;;8.80;99.90;;;;;;4969110;28;20058;-82
2022/01/04 09:05:31;;;;;;;124.43;112.50;;;8.80;99.90;;;;;;4967578;28;20599;-81
2022/01/04 09:07:59;;;;;;;122.88;111.25;;;8.70;99.90;;;;;;4957846;28;20059;-84
2022/01/04 09:10:28;;;;;;;117.53;106.63;;;8.80;99.90;;;;;;4959030;28;20109;-81
2022/01/04 09:13:00;;;;;;;115.72;104.50;;;8.70;99.90;;;;;;4971797;28;20135;-80
2022/01/04 09:15:47;;;;;;;118.63;107.28;;;8.70;99.90;;;;;;4958858;28;20138;-79
2022/01/04 09:20:59;;;;;;;111.55;100.50;;;8.60;99.90;;;;;;4971150;28;20077;-79
2022/01/04 09:23:27;;;;;;;115.15;103.90;;;8.60;99.80;;;;;;4954895;28;20055;-82
2022/01/04 09:25:56;;;;;;;118.28;106.35;;;8.60;99.80;;;;;;4958653;28;20082;-85
2022/01/04 09:28:24;;;;;;;119.72;108.07;;;8.60;99.80;;;;;;4942188;28;20134;-84
2022/01/04 09:30:52;;;;;;;123.28;111.40;;;8.50;99.90;;;;;;4969495;28;20579;-82
2022/01/04 09:33:20;;;;;;;125.57;113.38;;;8.50;99.90;;;;;;4970203;28;20055;-80
2022/01/04 09:35:49;;;;;;;125.10;112.75;;;8.50;99.90;;;;;;4961314;28;20054;-81
2022/01/04 09:38:16;;;;;;;124.85;112.28;;;8.50;99.90;;;;;;4976337;28;20551;-81
2022/01/04 09:40:44;;;;;;;123.22;110.30;;;8.50;99.90;;;;;;4993138;28;20065;-80
2022/01/04 09:43:13;;;;;;;123.90;111.53;;;8.60;99.90;;;;;;4976789;28;20587;-82
2022/01/04 09:45:40;;;;;;;124.65;112.05;;;8.60;99.90;;;;;;4955064;28;20059;-80
2022/01/04 09:48:07;;;;;;;123.57;111.32;;;8.60;99.90;;;;;;4956967;28;20051;-80
2022/01/04 09:50:37;;;;;;;124.20;111.90;;;8.60;99.90;;;;;;4941074;28;20055;-81
2022/01/04 09:53:06;;;;;;;121.57;109.60;;;8.60;99.90;;;;;;4944453;28;20114;-83
2022/01/04 09:55:34;;;;;;;121.88;109.82;;;8.70;99.90;;;;;;4975669;28;20062;-81
2022/01/04 09:58:02;;;;;;;121.65;109.78;;;8.60;99.90;;;;;;4976062;28;20055;-81
2022/01/04 10:00:31;;;;;;;118.82;107.35;;;8.70;99.90;;;;;;4976027;28;20054;-83
2022/01/04 10:03:11;;;;;;;120.43;108.78;;;8.70;99.90;;;;;;4957892;28;20138;-84
2022/01/04 10:05:39;;;;;;;118.82;107.28;;;8.70;99.90;;;;;;4957496;28;20055;-80
2022/01/04 10:08:08;;;;;;;116.85;105.32;;;8.70;99.90;;;;;;4956868;28;20135;-80
2022/01/04 10:10:36;;;;;;;117.82;106.13;;;8.70;99.90;;;;;;4957505;28;20057;-86
2022/01/04 10:13:05;;;;;;;118.97;107.20;;;8.60;99.90;;;;;;4949940;28;20055;-82
2022/01/04 10:15:37;;;;;;;118.55;106.97;;;8.60;99.90;;;;;;4947462;28;20059;-81
2022/01/04 10:18:17;;;;;;;119.45;107.50;;;8.60;99.90;;;;;;4956710;28;20075;-79
2022/01/04 10:20:48;;;;;;;112.68;101.68;;;8.60;99.90;;;;;;4957073;28;20453;-81
2022/01/04 10:23:19;;;;;;;114.90;104.03;;;8.60;99.90;;;;;;4940889;28;20078;-81
2022/01/04 10:25:46;;;;;;;115.10;104.00;;;8.60;99.90;;;;;;4940853;28;20066;-81
2022/01/04 10:28:27;;;;;;;113.90;102.88;;;8.60;99.90;;;;;;4956480;28;20051;-81
2022/01/04 10:30:59;;;;;;;113.78;103.03;;;8.60;99.90;;;;;;4976122;28;20051;-81
2022/01/04 10:33:27;;;;;;;112.88;102.05;;;8.60;99.90;;;;;;4960298;28;20059;-81
2022/01/04 10:35:55;;;;;;;112.32;101.72;;;8.60;99.90;;;;;;4975996;28;20145;-80
2022/01/04 10:38:26;;;;;;;113.32;102.70;;;8.60;99.90;;;;;;4975754;28;20125;-81
2022/01/04 10:41:01;;;;;;;111.13;100.88;;;8.60;99.90;;;;;;4976375;28;20170;-80
2022/01/04 10:43:30;;;;;;;113.07;102.40;;;8.60;99.90;;;;;;4973057;28;20135;-81
2022/01/04 10:46:00;;;;;;;111.85;101.45;;;8.50;99.90;;;;;;4940882;28;20059;-82
2022/01/04 10:48:29;;;;;;;112.85;102.40;;;8.60;99.90;;;;;;4988897;28;20058;-80
2022/01/04 10:50:58;;;;;;;113.15;102.75;;;8.60;99.90;;;;;;4940980;28;20498;-80
2022/01/04 10:53:29;;;;;;;112.45;102.07;;;8.60;99.90;;;;;;4975912;28;20532;-80
2022/01/04 10:55:58;;;;;;;109.45;99.13;;;8.60;99.90;;;;;;4976006;28;20055;-78
2022/01/04 10:58:30;;;;;;;108.60;98.50;;;8.60;99.90;;;;;;4960644;28;20509;-78
2022/01/04 11:01:01;;;;;;;108.55;98.28;;;8.60;99.90;;;;;;4955771;28;20058;-79
2022/01/04 11:03:34;;;;;;;110.38;100.07;;;8.60;99.90;;;;;;4957826;28;20066;-81
2022/01/04 11:06:04;;;;;;;111.32;100.97;;;8.60;99.90;;;;;;4959161;28;20186;-81
2022/01/04 11:08:31;;;;;;;110.25;99.85;;;8.60;99.80;;;;;;4958995;28;20142;-80
2022/01/04 11:10:59;;;;;;;109.38;99.07;;;8.60;99.80;;;;;;4943670;28;20055;-80
2022/01/04 11:13:26;;;;;;;111.15;100.85;;;8.60;99.80;;;;;;4959777;28;20053;-80
2022/01/04 11:15:53;;;;;;;110.30;99.75;;;8.60;99.80;;;;;;4975650;28;20066;-87
2022/01/04 11:18:22;;;;;;;109.00;98.70;;;8.60;99.70;;;;;;4976005;28;20596;-83
2022/01/04 11:20:51;;;;;;;112.25;101.95;;;8.60;99.70;;;;;;4959630;28;20505;-81
2022/01/04 11:23:24;;;;;;;112.03;101.72;;;8.60;99.70;;;;;;4959711;28;20146;-82
2022/01/04 11:25:52;;;;;;;112.32;102.00;;;8.60;99.60;;;;;;4975747;28;20146;-82
2022/01/04 11:28:21;;;;;;;111.72;101.43;;;8.60;99.60;;;;;;4991679;28;20521;-82
2022/01/04 11:31:13;;;;;;;111.68;101.38;;;8.60;99.50;;;;;;4959696;28;20141;-80
2022/01/04 11:33:55;;;;;;;111.68;101.38;;;8.60;99.50;;;;;;4941416;28;20090;-83
2022/01/04 11:36:24;;;;;;;111.78;101.53;;;8.60;99.40;;;;;;4975707;28;20138;-82
2022/01/04 11:38:51;;;;;;;110.53;100.40;;;8.60;99.30;;;;;;4959202;28;20058;-83
2022/01/04 11:41:24;;;;;;;111.57;101.05;;;8.50;99.20;;;;;;4959749;28;20433;-83
2022/01/04 11:43:51;;;;;;;112.15;102.05;;;8.50;99.10;;;;;;4978776;28;20071;-81
2022/01/04 11:46:37;;;;;;;110.03;99.72;;;8.50;99.10;;;;;;4978518;28;20059;-81
2022/01/04 11:49:10;;;;;;;111.93;101.50;;;8.50;99.00;;;;;;4977943;28;20051;-83
2022/01/04 11:51:40;;;;;;;111.82;101.55;;;8.50;99.00;;;;;;4966989;28;20112;-83
2022/01/04 11:54:22;;;;;;;111.13;100.63;;;8.40;99.10;;;;;;4975098;28;20054;-82
2022/01/04 11:56:53;;;;;;;111.20;100.63;;;8.50;99.00;;;;;;4945243;28;20047;-83
2022/01/04 11:59:24;;;;;;;111.22;100.93;;;8.40;99.00;;;;;;4978419;28;20083;-88
2022/01/04 12:01:52;;;;;;;112.82;102.35;;;8.40;98.90;;;;;;4952894;28;20059;-82
2022/01/04 12:04:52;;;;;;;112.47;102.03;;;8.40;98.80;;;;;;4989751;28;20060;-81
2022/01/04 12:07:47;;;;;;;111.82;101.30;;;8.40;98.90;;;;;;4954425;28;20055;-81
2022/01/04 12:10:40;;;;;;;112.68;102.30;;;8.30;98.70;;;;;;4998398;28;20051;-80
2022/01/04 12:13:10;;;;;;;110.38;100.28;;;8.30;98.70;;;;;;4971847;28;20066;-80
2022/01/04 12:15:59;;;;;;;111.40;100.93;;;8.30;98.60;;;;;;4980459;28;20168;-81
2022/01/04 12:18:57;;;;;;;109.93;99.70;;;8.20;98.60;;;;;;4963627;28;20082;-83
2022/01/04 12:21:28;;;;;;;111.50;100.82;;;8.10;98.40;;;;;;5005792;28;20066;-80
2022/01/04 12:23:56;;;;;;;110.10;99.80;;;8.10;98.40;;;;;;5014062;28;20154;-81
2022/01/04 12:26:27;;;;;;;109.72;99.35;;;8.10;98.40;;;;;;4997566;28;20062;-81
2022/01/04 12:29:20;;;;;;;109.18;98.78;;;8.10;98.40;;;;;;4997898;28;20812;-86
2022/01/04 12:31:49;;;;;;;110.15;99.75;;;8.10;98.40;;;;;;4980624;28;20050;-78
2022/01/04 12:34:29;;;;;;;111.00;100.70;;;8.00;98.40;;;;;;4997043;28;20046;-79
2022/01/04 12:36:58;;;;;;;110.63;100.32;;;8.00;98.40;;;;;;4996961;28;20097;-79